地図

経路データ

SID SEASON NUMBER BASIN SUBBASIN NAME ISO_TIME NATURE LAT LON WMO_WIND WMO_PRES WMO_AGENCY TRACK_TYPE DIST2LAND LANDFALL IFLAG USA_AGENCY USA_ATCF_ID USA_LAT USA_LON USA_RECORD USA_STATUS USA_WIND USA_PRES USA_SSHS USA_R34_NE USA_R34_SE USA_R34_SW USA_R34_NW USA_R50_NE USA_R50_SE USA_R50_SW USA_R50_NW USA_R64_NE USA_R64_SE USA_R64_SW USA_R64_NW USA_POCI USA_ROCI USA_RMW USA_EYE TOKYO_LAT TOKYO_LON TOKYO_GRADE TOKYO_WIND TOKYO_PRES TOKYO_R50_DIR TOKYO_R50_LONG TOKYO_R50_SHORT TOKYO_R30_DIR TOKYO_R30_LONG TOKYO_R30_SHORT TOKYO_LAND CMA_LAT CMA_LON CMA_CAT CMA_WIND CMA_PRES HKO_LAT HKO_LON HKO_CAT HKO_WIND HKO_PRES NEWDELHI_LAT NEWDELHI_LON NEWDELHI_GRADE NEWDELHI_WIND NEWDELHI_PRES NEWDELHI_CI NEWDELHI_DP NEWDELHI_POCI REUNION_LAT REUNION_LON REUNION_TYPE REUNION_WIND REUNION_PRES REUNION_TNUM REUNION_CI REUNION_RMW REUNION_R34_NE REUNION_R34_SE REUNION_R34_SW REUNION_R34_NW REUNION_R50_NE REUNION_R50_SE REUNION_R50_SW REUNION_R50_NW REUNION_R64_NE REUNION_R64_SE REUNION_R64_SW REUNION_R64_NW BOM_LAT BOM_LON BOM_TYPE BOM_WIND BOM_PRES BOM_TNUM BOM_CI BOM_RMW BOM_R34_NE BOM_R34_SE BOM_R34_SW BOM_R34_NW BOM_R50_NE BOM_R50_SE BOM_R50_SW BOM_R50_NW BOM_R64_NE BOM_R64_SE BOM_R64_SW BOM_R64_NW BOM_ROCI BOM_POCI BOM_EYE BOM_POS_METHOD BOM_PRES_METHOD NADI_LAT NADI_LON NADI_CAT NADI_WIND NADI_PRES WELLINGTON_LAT WELLINGTON_LON WELLINGTON_WIND WELLINGTON_PRES DS824_LAT DS824_LON DS824_STAGE DS824_WIND DS824_PRES TD9636_LAT TD9636_LON TD9636_STAGE TD9636_WIND TD9636_PRES TD9635_LAT TD9635_LON TD9635_WIND TD9635_PRES TD9635_ROCI NEUMANN_LAT NEUMANN_LON NEUMANN_CLASS NEUMANN_WIND NEUMANN_PRES MLC_LAT MLC_LON MLC_CLASS MLC_WIND MLC_PRES USA_GUST BOM_GUST BOM_GUST_PER REUNION_GUST REUNION_GUST_PER USA_SEAHGT USA_SEARAD_NE USA_SEARAD_SE USA_SEARAD_SW USA_SEARAD_NW STORM_SPEED STORM_DIR
1967097S11089 1967 29 SI MM JACKIE 1967-04-07 06:00:00 NR -11.1000 89.0000 spur-merge 1518 1518 _____O________ -1 -11.1000 89.0000 99 9.90000 9 246
1967097S11089 1967 29 SI MM JACKIE 1967-04-07 07:00:00 NR -11.1592 88.8624 spur-merge 1533 1533 _____P________ -1 -11.1592 88.8624 99 9 246
1967097S11089 1967 29 SI MM JACKIE 1967-04-07 09:00:00 NR -11.2826 88.5900 spur-merge 1565 1565 _____P________ -1 -11.2826 88.5900 99 9 244
1967097S11089 1967 29 SI MM JACKIE 1967-04-07 10:00:00 NR -11.3495 88.4568 spur-merge 1573 1573 _____P________ -1 -11.3495 88.4568 99 9 240
1967097S11089 1967 29 SI MM JACKIE 1967-04-07 12:00:00 NR -11.5000 88.2000 spur-merge 1612 1612 _____O________ -1 -11.5000 88.2000 99 9.90000 9 235
1967097S11089 1967 29 SI MM JACKIE 1967-04-07 15:00:00 NR -11.7649 87.8425 spur-merge 1667 1667 _____P________ -1 -11.7649 87.8425 99 9 233
1967097S11089 1967 29 SI MM JACKIE 1967-04-07 16:00:00 NR -11.8515 87.7279 spur-merge 1683 1683 _____P________ -1 -11.8515 87.7279 99 8 235
1967097S11089 1967 29 SI MM JACKIE 1967-04-07 18:00:00 NR -12.0000 87.5000 spur-merge 1707 1707 _____O________ -1 -12.0000 87.5000 99 9.90000 7 247
1967097S11089 1967 29 SI MM JACKIE 1967-04-07 21:00:00 NR -12.0924 87.1572 spur-merge 1738 1738 _____P________ -1 -12.0924 87.1572 99 7 255
1967097S11089 1967 29 SI MM JACKIE 1967-04-07 22:00:00 NR -12.1180 87.0410 spur-merge 1755 1755 _____P________ -1 -12.1180 87.0410 99 7 253
1967097S11089 1967 29 SI MM JACKIE 1967-04-08 00:00:00 NR -12.2000 86.8000 spur-merge 1779 1779 _____O________ -1 -12.2000 86.8000 99 9.90000 8 245
1967097S11089 1967 29 SI MM JACKIE 1967-04-08 01:00:00 NR -12.2877 86.6672 spur-merge 1794 1794 _____P________ -1 -12.2877 86.6672 99 10 233
1967097S11089 1967 29 SI MM JACKIE 1967-04-08 03:00:00 NR -12.5000 86.3927 spur-merge 1834 1834 _____P________ -1 -12.5000 86.3927 99 10 231
1967097S11089 1967 29 SI MM JACKIE 1967-04-08 04:00:00 NR -12.6099 86.2565 spur-merge 1849 1849 _____P________ -1 -12.6099 86.2565 99 10 232
1967097S11089 1967 29 SI MM JACKIE 1967-04-08 06:00:00 NR -12.8000 86.0000 spur-merge 1888 1888 _____O________ -1 -12.8000 86.0000 99 9.90000 9 236
1967097S11089 1967 29 SI MM JACKIE 1967-04-08 07:00:00 NR -12.8561 85.8832 spur-merge 1904 1904 _____P________ -1 -12.8561 85.8832 99 7 248
1967097S11089 1967 29 SI MM JACKIE 1967-04-08 09:00:00 NR -12.9299 85.6699 spur-merge 1921 1921 _____P________ -1 -12.9299 85.6699 99 6 252
1967097S11089 1967 29 SI MM JACKIE 1967-04-08 10:00:00 NR -12.9550 85.5732 spur-merge 1936 1936 _____P________ -1 -12.9550 85.5732 99 5 255
1967097S11089 1967 29 SI MM JACKIE 1967-04-08 12:00:00 NR -13.0000 85.4000 spur-merge 1953 1953 _____O________ -1 -13.0000 85.4000 99 9.90000 5 251
1967097S11089 1967 29 SI MM JACKIE 1967-04-08 15:00:00 NR -13.0849 85.1849 spur-merge 1977 1977 _____P________ -1 -13.0849 85.1849 99 4 247
1967097S11089 1967 29 SI MM JACKIE 1967-04-08 16:00:00 NR -13.1175 85.1224 spur-merge 1985 1985 _____P________ -1 -13.1175 85.1224 99 4 237
1967097S11089 1967 29 SI MM JACKIE 1967-04-08 18:00:00 NR -13.2000 85.0000 spur-merge 2001 2001 _____O________ -1 -13.2000 85.0000 99 9.90000 5 233
1967097S11089 1967 29 SI MM JACKIE 1967-04-08 19:00:00 NR -13.2579 84.9360 spur-merge 2016 2016 _____P________ -1 -13.2579 84.9360 99 5 224
1967097S11089 1967 29 SI MM JACKIE 1967-04-08 21:00:00 NR -13.3925 84.8075 spur-merge 2031 2031 _____P________ -1 -13.3925 84.8075 99 6 223
1967097S11089 1967 29 SI MM JACKIE 1967-04-08 22:00:00 NR -13.4637 84.7412 spur-merge 2047 2047 _____P________ -1 -13.4637 84.7412 99 6 224
1967097S11089 1967 29 SI MM JACKIE 1967-04-09 00:00:00 NR -13.6000 84.6000 spur-merge 2062 2062 _____O________ -1 -13.6000 84.6000 99 9.90000 5 229
1967097S11089 1967 29 SI MM JACKIE 1967-04-09 01:00:00 NR -13.6399 84.5327 spur-merge 2071 2071 _____P________ -1 -13.6399 84.5327 99 5 241
1967097S11089 1967 29 SI MM JACKIE 1967-04-09 03:00:00 NR -13.7124 84.3872 spur-merge 2086 2086 _____P________ -1 -13.7124 84.3872 99 5 242
1967097S11089 1967 29 SI MM JACKIE 1967-04-09 04:00:00 NR -13.7579 84.3034 spur-merge 2102 2102 _____P________ -1 -13.7579 84.3034 99 7 236
1967097S11089 1967 29 SI MM JACKIE 1967-04-09 06:00:00 NR -13.9000 84.1000 spur-merge 2126 2126 _____O________ -1 -13.9000 84.1000 99 9.90000 8 231
1967097S11089 1967 29 SI MM JACKIE 1967-04-09 07:00:00 NR -14.0211 83.9652 spur-merge 2141 2141 _____P________ -1 -14.0211 83.9652 99 12 226
1967097S11089 1967 29 SI MM JACKIE 1967-04-09 09:00:00 NR -14.3202 83.6579 spur-merge 2187 2187 _____P________ -1 -14.3202 83.6579 99 13 224
1967097S11089 1967 29 SI MM JACKIE 1967-04-09 10:00:00 NR -14.4834 83.4983 spur-merge 2218 2218 _____P________ -1 -14.4834 83.4983 99 13 223
1967097S11089 1967 29 SI MM JACKIE 1967-04-09 12:00:00 NR -14.8000 83.2000 spur-merge 2264 2264 _____O________ -1 -14.8000 83.2000 99 9.90000 11 224
1967097S11089 1967 29 SI MM JACKIE 1967-04-09 15:00:00 NR -15.1199 82.8696 spur-merge 2310 2310 _____P________ -1 -15.1199 82.8696 99 9 224
1967097S11089 1967 29 SI MM JACKIE 1967-04-09 16:00:00 NR -15.2300 82.7754 spur-merge 2326 2326 _____P________ -1 -15.2300 82.7754 99 9 214
1967097S11089 1967 29 SI MM JACKIE 1967-04-09 18:00:00 NR -15.5000 82.6000 spur-merge 2364 2364 _____O________ -1 -15.5000 82.6000 99 9.90000 11 210
1967097S11089 1967 29 SI MM JACKIE 1967-04-09 19:00:00 NR -15.6877 82.5006 spur-merge 2386 2386 _____P________ -1 -15.6877 82.5006 99 14 204
1967097S11089 1967 29 SI MM JACKIE 1967-04-09 21:00:00 NR -16.1200 82.3128 spur-merge 2431 2431 _____P________ -1 -16.1200 82.3128 99 14 201
1967097S11089 1967 29 SI MM JACKIE 1967-04-09 22:00:00 NR -16.3499 82.2299 spur-merge 2454 2454 _____P________ -1 -16.3499 82.2299 99 14 197
1967097S11089 1967 29 SI MM JACKIE 1967-04-10 00:00:00 NR -16.8000 82.1000 spur-merge 2498 2498 _____O________ -1 -16.8000 82.1000 99 9.90000 13 195
1967097S11089 1967 29 SI MM JACKIE 1967-04-10 01:00:00 NR -16.9973 82.0551 spur-merge 2513 2513 _____P________ -1 -16.9973 82.0551 99 12 188
1967097S11089 1967 29 SI MM JACKIE 1967-04-10 03:00:00 NR -17.3724 82.0048 spur-merge 2550 2550 _____P________ -1 -17.3724 82.0048 99 11 186
1967097S11089 1967 29 SI MM JACKIE 1967-04-10 04:00:00 NR -17.5520 81.9957 spur-merge 2560 2554 _____P________ -1 -17.5520 81.9957 99 11 182
1967097S11089 1967 29 SI MM JACKIE 1967-04-10 06:00:00 NR -17.9000 82.0000 spur-merge 2554 2552 _____O________ -1 -17.9000 82.0000 99 9.90000 10 0
1967097S11089 1967 29 SI MM JACKIE 1967-04-10 07:00:00 NR -18.0671 81.9871 spur-merge 2550 2545 _____P________ -1 -18.0671 81.9871 99 10 182
1967097S11089 1967 29 SI MM JACKIE 1967-04-10 09:00:00 NR -18.3924 81.9830 spur-merge 2545 2543 _____P________ -1 -18.3924 81.9830 99 10 178
1967097S11089 1967 29 SI MM JACKIE 1967-04-10 10:00:00 NR -18.5561 82.0010 spur-merge 2542 2539 _____P________ -1 -18.5561 82.0010 99 10 167
1967097S11089 1967 29 SI MM JACKIE 1967-04-10 12:00:00 NR -18.9000 82.1000 spur-merge 2547 2546 _____O________ -1 -18.9000 82.1000 99 9.90000 12 156
1967097S11089 1967 29 SI MM JACKIE 1967-04-10 15:00:00 NR -19.4852 82.4472 spur-merge 2571 2571 _____P________ -1 -19.4852 82.4472 99 14 148
1967097S11089 1967 29 SI MM JACKIE 1967-04-10 18:00:00 NR -20.1000 82.9000 spur-merge 2616 2615 _____O________ -1 -20.1000 82.9000 99 9.90000 15 146
1967097S11089 1967 29 SI MM JACKIE 1967-04-10 19:00:00 NR -20.2999 83.0232 spur-merge 2625 2625 _____P________ -1 -20.2999 83.0232 99 14 150
1967097S11089 1967 29 SI MM JACKIE 1967-04-10 21:00:00 NR -20.6997 83.2707 spur-merge 2653 2652 _____P________ -1 -20.6997 83.2707 99 14 149
1967097S11089 1967 29 SI MM JACKIE 1967-04-10 22:00:00 NR -20.8997 83.4024 spur-merge 2662 2661 _____P________ -1 -20.8997 83.4024 99 15 146
1967097S11089 1967 29 SI MM JACKIE 1967-04-11 00:00:00 NR -21.3000 83.7000 spur-merge 2691 2691 _____O________ -1 -21.3000 83.7000 99 9.90000 16 142
1967097S11089 1967 29 SI MM JACKIE 1967-04-11 03:00:00 NR -21.9451 84.2695 spur-merge 2750 2750 _____P________ -1 -21.9451 84.2695 99 17 140
1967097S11089 1967 29 SI MM JACKIE 1967-04-11 04:00:00 NR -22.1474 84.4779 spur-merge 2764 2764 _____P________ -1 -22.1474 84.4779 99 16 134
1967097S11089 1967 29 SI MM JACKIE 1967-04-11 06:00:00 NR -22.5000 84.9000 spur-merge 2777 2771 _____O________ -1 -22.5000 84.9000 99 9.90000 14 127
1967097S11089 1967 29 SI MM JACKIE 1967-04-11 09:00:00 NR -22.8370 85.4786 spur-merge 2767 2765 _____P________ -1 -22.8370 85.4786 99 13 121
1967097S11089 1967 29 SI MM JACKIE 1967-04-11 10:00:00 NR -22.9242 85.6772 spur-merge 2757 2739 _____P________ -1 -22.9242 85.6772 99 13 115
1967097S11089 1967 29 SI MM JACKIE 1967-04-11 12:00:00 NR -23.1000 86.1000 spur-merge 2739 2686 _____O________ -1 -23.1000 86.1000 99 9.90000 14 116
1967097S11089 1967 29 SI MM JACKIE 1967-04-11 15:00:00 NR -23.4576 86.8423 spur-merge 2684 2652 _____P________ -1 -23.4576 86.8423 99 16 118
1967097S11089 1967 29 SI MM JACKIE 1967-04-11 16:00:00 NR -23.5772 87.0993 spur-merge 2652 2597 _____P________ -1 -23.5772 87.0993 99 16 116
1967097S11089 1967 29 SI MM JACKIE 1967-04-11 18:00:00 NR -23.8000 87.6000 spur-merge 2597 2575 _____O________ -1 -23.8000 87.6000 99 9.90000 15 115
1967097S11089 1967 29 SI MM JACKIE 1967-04-11 19:00:00 NR -23.8893 87.8337 spur-merge 2575 2533 _____P________ -1 -23.8893 87.8337 99 13 112
1967097S11089 1967 29 SI MM JACKIE 1967-04-11 21:00:00 NR -24.0497 88.2807 spur-merge 2523 2501 _____P________ -1 -24.0497 88.2807 99 13 112
1967097S11089 1967 29 SI MM JACKIE 1967-04-11 22:00:00 NR -24.1282 88.4939 spur-merge 2501 2457 _____P________ -1 -24.1282 88.4939 99 12 114
1967097S11089 1967 29 SI MM JACKIE 1967-04-12 00:00:00 NR -24.3000 88.9000 spur-merge 2457 2435 _____O________ -1 -24.3000 88.9000 99 9.90000 12 116
1967097S11089 1967 29 SI MM JACKIE 1967-04-12 01:00:00 NR -24.3998 89.0931 spur-merge 2435 2401 _____P________ -1 -24.3998 89.0931 99 12 122
1967097S11089 1967 29 SI MM JACKIE 1967-04-12 03:00:00 NR -24.6254 89.4641 spur-merge 2391 2380 _____P________ -1 -24.6254 89.4641 99 12 125
1967097S11089 1967 29 SI MM JACKIE 1967-04-12 04:00:00 NR -24.7473 89.6443 spur-merge 2380 2335 _____P________ -1 -24.7473 89.6443 99 12 128
1967097S11089 1967 29 SI WA JACKIE 1967-04-12 06:00:00 ET -25.0000 90.0000 spur-merge 2335 _____O________ -1 -25.0000 90.0000 5 9.90000 12 128

IBTrACS Databaseについて

本データベースは、米国NOAAが公開する1842年以降の世界の熱帯低気圧のベストトラックデータアーカイブInternational Best Track Archive for Climate Stewardship (IBTrACS)を、ウェブで閲覧しやすい形式に変換したものです。

最終更新日:2021-10-19